createdAt,value
2022-11-05T00:01:15.921Z,71.38
2022-11-05T00:04:07.760Z,71.32
2022-11-05T00:06:54.926Z,71.24
2022-11-05T00:09:29.332Z,71.23
2022-11-05T00:12:17.694Z,71.32
2022-11-05T00:15:04.649Z,71.25
2022-11-05T00:17:33.544Z,71.34
2022-11-05T00:20:02.851Z,71.23
2022-11-05T00:22:49.987Z,71.21
2022-11-05T00:25:19.530Z,71.31
2022-11-05T00:27:53.011Z,71.41
2022-11-05T00:30:25.126Z,71.31
2022-11-05T00:32:59.672Z,71.30
2022-11-05T00:35:28.602Z,71.36
2022-11-05T00:37:56.871Z,71.30
2022-11-05T00:40:28.750Z,71.35
2022-11-05T00:43:16.625Z,71.31
2022-11-05T00:45:48.679Z,71.25
2022-11-05T00:48:35.379Z,71.39
2022-11-05T00:51:03.878Z,71.34
2022-11-05T00:53:34.889Z,71.26
2022-11-05T00:56:04.000Z,71.21
2022-11-05T00:58:33.078Z,71.29
2022-11-05T01:01:02.974Z,71.51
2022-11-05T01:03:33.454Z,71.50
2022-11-05T01:06:09.775Z,71.53
2022-11-05T01:08:39.893Z,71.48
2022-11-05T01:11:11.689Z,71.49
2022-11-05T01:13:41.837Z,71.37
2022-11-05T01:16:10.780Z,71.40
2022-11-05T01:18:39.279Z,71.46
2022-11-05T01:21:16.646Z,71.50
2022-11-05T01:23:49.864Z,71.57
2022-11-05T01:26:18.619Z,71.55
2022-11-05T01:28:51.509Z,71.64
2022-11-05T01:31:20.878Z,71.63
2022-11-05T01:33:53.701Z,71.53
2022-11-05T01:36:22.217Z,71.53
2022-11-05T01:38:50.505Z,71.63
2022-11-05T01:41:18.761Z,71.62
2022-11-05T01:43:51.151Z,71.52
2022-11-05T01:46:23.647Z,71.61
2022-11-05T01:49:00.088Z,71.53
2022-11-05T01:51:32.244Z,71.71
2022-11-05T01:54:04.993Z,71.71
2022-11-05T01:56:36.753Z,71.74
2022-11-05T01:59:11.172Z,71.69
2022-11-05T02:01:40.887Z,71.55
2022-11-05T02:04:14.479Z,71.67
2022-11-05T02:06:45.761Z,71.73
2022-11-05T02:09:19.822Z,71.72
2022-11-05T02:11:50.898Z,71.65
2022-11-05T02:14:20.120Z,71.67
2022-11-05T02:16:58.805Z,71.71
2022-11-05T02:19:50.142Z,71.72
2022-11-05T02:22:49.995Z,71.73
2022-11-05T02:25:38.414Z,71.67
2022-11-05T02:28:17.213Z,71.63
2022-11-05T02:30:50.351Z,71.74
2022-11-05T02:33:39.016Z,71.79
2022-11-05T02:36:28.123Z,71.50
2022-11-05T02:39:07.159Z,71.67
2022-11-05T02:41:43.312Z,71.70
2022-11-05T02:44:20.257Z,71.65
2022-11-05T02:46:57.880Z,71.70
2022-11-05T02:49:39.103Z,71.84
2022-11-05T02:52:19.768Z,71.85
2022-11-05T02:54:58.720Z,71.73
2022-11-05T02:57:29.601Z,71.70
2022-11-05T03:00:07.406Z,71.67
2022-11-05T03:02:37.892Z,71.84
2022-11-05T03:05:08.472Z,71.83
2022-11-05T03:07:44.963Z,71.84
2022-11-05T03:10:26.299Z,71.85
2022-11-05T03:13:07.984Z,71.83
2022-11-05T03:15:50.516Z,71.77
2022-11-05T03:18:26.276Z,71.96
2022-11-05T03:21:03.779Z,71.89
2022-11-05T03:23:40.324Z,72.00
2022-11-05T03:26:16.910Z,71.96
2022-11-05T03:28:50.330Z,72.07
2022-11-05T03:31:22.063Z,72.05
2022-11-05T03:33:55.465Z,72.09
2022-11-05T03:36:27.319Z,72.15
2022-11-05T03:38:59.085Z,72.14
2022-11-05T03:41:29.351Z,72.19
2022-11-05T03:44:09.942Z,72.10
2022-11-05T03:46:44.111Z,72.18
2022-11-05T03:49:17.417Z,72.13
2022-11-05T03:51:53.889Z,72.04
2022-11-05T03:54:23.428Z,72.10
2022-11-05T03:57:02.085Z,72.18
2022-11-05T03:59:30.448Z,72.29
2022-11-05T04:02:02.371Z,72.29
2022-11-05T04:04:31.015Z,72.37
2022-11-05T04:07:17.916Z,72.42
2022-11-05T04:10:10.399Z,72.36
2022-11-05T04:12:59.630Z,72.23
2022-11-05T04:15:29.736Z,72.40
2022-11-05T04:17:58.490Z,72.40
2022-11-05T04:20:45.939Z,72.39
2022-11-05T04:23:32.663Z,72.34
2022-11-05T04:26:00.964Z,72.29
2022-11-05T04:28:53.531Z,72.52
2022-11-05T04:31:22.683Z,72.49
2022-11-05T04:33:52.652Z,72.55
2022-11-05T04:36:20.964Z,72.54
2022-11-05T04:38:52.239Z,72.72
2022-11-05T04:41:21.436Z,72.53
2022-11-05T04:43:53.051Z,72.55
2022-11-05T04:46:24.957Z,72.62
2022-11-05T04:48:59.770Z,72.69
2022-11-05T04:51:29.405Z,72.64
2022-11-05T04:53:58.012Z,72.53
2022-11-05T04:56:26.451Z,72.54
2022-11-05T04:58:55.378Z,72.58
2022-11-05T05:01:26.524Z,72.58
2022-11-05T05:03:55.387Z,72.49
2022-11-05T05:06:23.711Z,72.52
2022-11-05T05:08:52.353Z,72.53
2022-11-05T05:11:21.939Z,72.68
2022-11-05T05:13:51.919Z,72.44
2022-11-05T05:16:22.638Z,72.52
2022-11-05T05:18:52.835Z,72.52
2022-11-05T05:21:41.825Z,72.40
2022-11-05T05:24:13.181Z,72.48
2022-11-05T05:26:46.661Z,72.45
2022-11-05T05:29:18.724Z,72.69
2022-11-05T05:31:47.420Z,72.67
2022-11-05T05:34:16.944Z,72.76
2022-11-05T05:36:45.372Z,72.61
2022-11-05T05:39:14.067Z,72.69
2022-11-05T05:41:44.039Z,72.76
2022-11-05T05:44:12.792Z,72.71
2022-11-05T05:46:41.398Z,72.84
2022-11-05T05:49:12.503Z,72.79
2022-11-05T05:51:41.491Z,72.91
2022-11-05T05:54:12.343Z,72.87
2022-11-05T05:56:42.254Z,72.96
2022-11-05T05:59:11.374Z,72.87
2022-11-05T06:01:42.276Z,72.82
2022-11-05T06:04:11.679Z,72.87
2022-11-05T06:06:41.900Z,72.93
2022-11-05T06:09:10.526Z,72.91
2022-11-05T06:11:39.206Z,73.02
2022-11-05T06:14:11.068Z,73.03
2022-11-05T06:16:42.526Z,73.12
2022-11-05T06:19:12.778Z,72.97
2022-11-05T06:21:45.317Z,73.15
2022-11-05T06:24:14.316Z,72.78
2022-11-05T06:26:44.684Z,73.02
2022-11-05T06:29:17.181Z,73.02
2022-11-05T06:31:47.209Z,73.05
2022-11-05T06:34:18.775Z,73.28
2022-11-05T06:36:48.930Z,73.23
2022-11-05T06:39:17.660Z,73.37
2022-11-05T06:42:16.729Z,73.25
2022-11-05T06:44:37.883Z,73.36
2022-11-05T06:47:14.189Z,73.35
2022-11-05T06:49:45.436Z,73.22
2022-11-05T06:52:16.717Z,73.36
2022-11-05T06:54:45.822Z,73.31
2022-11-05T06:57:15.122Z,73.34
2022-11-05T06:59:44.413Z,73.33
2022-11-05T07:02:17.417Z,73.36
2022-11-05T07:04:46.645Z,73.46
2022-11-05T07:07:16.480Z,73.53
2022-11-05T07:09:45.052Z,73.56
2022-11-05T07:12:14.030Z,73.58
2022-11-05T07:14:42.487Z,73.45
2022-11-05T07:17:11.274Z,73.51
2022-11-05T07:19:40.081Z,73.41
2022-11-05T07:22:08.499Z,73.47
2022-11-05T07:24:36.939Z,73.61
2022-11-05T07:27:09.054Z,73.46
2022-11-05T07:29:37.778Z,73.44
2022-11-05T07:32:06.937Z,73.65
2022-11-05T07:34:35.754Z,73.68
2022-11-05T07:37:04.222Z,73.53
2022-11-05T07:39:32.983Z,73.73
2022-11-05T07:42:01.315Z,73.67
2022-11-05T07:44:33.849Z,73.75
2022-11-05T07:47:02.085Z,73.85
2022-11-05T07:49:30.596Z,73.82
2022-11-05T07:51:59.301Z,73.86
2022-11-05T07:54:30.392Z,73.70
2022-11-05T07:57:00.866Z,73.60
2022-11-05T07:59:29.724Z,73.68
2022-11-05T08:01:58.949Z,73.56
2022-11-05T08:04:28.504Z,73.65
2022-11-05T08:06:56.976Z,73.59
2022-11-05T08:09:25.481Z,73.64
2022-11-05T08:11:57.366Z,73.73
2022-11-05T08:14:28.402Z,73.67
2022-11-05T08:16:58.974Z,73.70
2022-11-05T08:19:27.481Z,73.64
2022-11-05T08:21:58.641Z,73.78
2022-11-05T08:24:27.404Z,73.72
2022-11-05T08:26:55.749Z,73.79
2022-11-05T08:29:24.370Z,73.80
2022-11-05T08:31:53.082Z,73.93
2022-11-05T08:34:21.453Z,73.81
2022-11-05T08:36:52.756Z,73.79
2022-11-05T08:39:21.208Z,73.89
2022-11-05T08:41:50.195Z,73.79
2022-11-05T08:44:18.528Z,73.86
2022-11-05T08:46:46.988Z,73.94
2022-11-05T08:49:16.167Z,74.01
2022-11-05T08:51:44.720Z,73.92
2022-11-05T08:54:13.699Z,73.94
2022-11-05T08:56:41.977Z,73.97
2022-11-05T08:59:10.494Z,73.85
2022-11-05T09:01:39.004Z,73.89
2022-11-05T09:04:07.942Z,74.04
2022-11-05T09:06:37.066Z,73.81
2022-11-05T09:09:05.338Z,73.81
2022-11-05T09:12:05.259Z,73.89
2022-11-05T09:14:21.984Z,73.89
2022-11-05T09:16:50.915Z,74.05
2022-11-05T09:19:19.348Z,74.12
2022-11-05T09:21:49.029Z,74.06
2022-11-05T09:24:20.175Z,74.08
2022-11-05T09:26:52.257Z,74.04
2022-11-05T09:29:20.913Z,73.95
2022-11-05T09:31:55.023Z,74.04
2022-11-05T09:34:25.871Z,74.04
2022-11-05T09:36:58.531Z,74.03
2022-11-05T09:39:27.324Z,73.93
2022-11-05T09:42:02.149Z,74.14
2022-11-05T09:44:37.583Z,74.20
2022-11-05T09:47:13.261Z,74.08
2022-11-05T09:49:47.674Z,74.07
2022-11-05T09:52:21.425Z,74.10
2022-11-05T09:54:50.984Z,74.12
2022-11-05T09:57:25.527Z,74.11
2022-11-05T09:59:56.646Z,73.98
2022-11-05T10:02:28.182Z,73.95
2022-11-05T10:05:03.577Z,73.92
2022-11-05T10:07:42.685Z,74.01
2022-11-05T10:10:25.811Z,74.06
2022-11-05T10:12:58.490Z,74.07
2022-11-05T10:15:30.563Z,74.04
2022-11-05T10:18:03.149Z,74.19
2022-11-05T10:20:34.489Z,74.06
2022-11-05T10:23:11.059Z,74.11
2022-11-05T10:25:44.047Z,74.18
2022-11-05T10:28:16.826Z,74.09
2022-11-05T10:30:46.561Z,74.19
2022-11-05T10:33:28.327Z,74.00
2022-11-05T10:36:02.794Z,74.06
2022-11-05T10:38:31.287Z,74.08
2022-11-05T10:41:18.385Z,74.13
2022-11-05T10:43:50.934Z,74.14
2022-11-05T10:46:38.054Z,74.19
2022-11-05T10:49:22.244Z,74.30
2022-11-05T10:51:56.517Z,74.20
2022-11-05T10:54:33.397Z,74.35
2022-11-05T10:57:21.645Z,74.17
2022-11-05T11:00:02.258Z,74.11
2022-11-05T11:02:30.678Z,74.20
2022-11-05T11:04:59.375Z,74.04
2022-11-05T11:07:27.756Z,74.01
2022-11-05T11:09:56.099Z,73.91
2022-11-05T11:12:28.709Z,74.11
2022-11-05T11:15:12.864Z,73.96
2022-11-05T11:17:41.266Z,73.95
2022-11-05T11:20:23.769Z,74.13
2022-11-05T11:23:04.979Z,74.41
2022-11-05T11:25:44.873Z,74.55
2022-11-05T11:28:19.602Z,74.59
2022-11-05T11:30:52.761Z,74.47
2022-11-05T11:33:25.585Z,74.46
2022-11-05T11:35:54.631Z,74.42
2022-11-05T11:38:24.353Z,74.44
2022-11-05T11:41:01.921Z,74.40
2022-11-05T11:43:34.245Z,74.38
2022-11-05T11:46:08.798Z,74.41
2022-11-05T11:48:41.221Z,74.50
2022-11-05T11:51:29.785Z,74.41
2022-11-05T11:53:59.532Z,74.60
2022-11-05T11:56:32.014Z,74.46
2022-11-05T11:59:11.559Z,74.40
2022-11-05T12:02:06.883Z,74.35
2022-11-05T12:04:53.969Z,74.36
2022-11-05T12:07:36.386Z,74.48
2022-11-05T12:10:27.496Z,74.60
2022-11-05T12:13:14.461Z,74.46
2022-11-05T12:15:49.566Z,74.57
2022-11-05T12:18:25.517Z,74.66
2022-11-05T12:21:07.385Z,74.75
2022-11-05T12:23:53.200Z,74.55
2022-11-05T12:26:38.672Z,74.51
2022-11-05T12:29:32.867Z,74.49
2022-11-05T12:32:37.233Z,74.28
2022-11-05T12:35:18.068Z,74.20
2022-11-05T12:37:55.345Z,74.24
2022-11-05T12:40:43.699Z,74.13
2022-11-05T12:43:19.751Z,74.16
2022-11-05T12:45:57.134Z,74.08
2022-11-05T12:48:51.915Z,74.38
2022-11-05T12:51:37.395Z,74.67
2022-11-05T12:54:20.736Z,74.80
2022-11-05T12:56:53.102Z,74.69
2022-11-05T12:59:28.434Z,74.53
2022-11-05T13:02:02.127Z,74.65
2022-11-05T13:04:37.687Z,74.54
2022-11-05T13:07:10.889Z,74.45
2022-11-05T13:09:45.111Z,74.44
2022-11-05T13:12:16.699Z,74.52
2022-11-05T13:14:50.779Z,74.80
2022-11-05T13:17:22.141Z,74.69
2022-11-05T13:20:21.095Z,74.44
2022-11-05T13:23:01.478Z,74.40
2022-11-05T13:25:42.598Z,74.56
2022-11-05T13:28:20.333Z,74.56
2022-11-05T13:30:56.215Z,74.74
2022-11-05T13:33:36.072Z,74.72
2022-11-05T13:36:32.711Z,74.65
2022-11-05T13:39:12.858Z,74.52
2022-11-05T13:42:02.026Z,74.42
2022-11-05T13:44:57.534Z,74.60
2022-11-05T13:47:51.322Z,74.70
2022-11-05T13:50:43.041Z,74.41
2022-11-05T13:53:42.788Z,74.47
2022-11-05T13:56:29.078Z,74.47
2022-11-05T13:59:17.116Z,74.70
2022-11-05T14:01:55.100Z,74.81
2022-11-05T14:04:33.402Z,74.78
2022-11-05T14:07:17.697Z,74.61
2022-11-05T14:09:54.953Z,74.45
2022-11-05T14:12:30.711Z,74.31
2022-11-05T14:15:10.620Z,74.45
2022-11-05T14:20:58.308Z,74.72
2022-11-05T14:23:54.594Z,74.78
2022-11-05T14:26:33.397Z,74.82
2022-11-05T14:29:39.750Z,74.75
2022-11-05T14:32:28.850Z,74.84
2022-11-05T14:35:05.242Z,74.86
2022-11-05T14:37:41.458Z,74.65
2022-11-05T14:40:36.438Z,74.88
2022-11-05T14:43:19.063Z,74.70
2022-11-05T14:46:00.761Z,74.78
2022-11-05T14:48:41.234Z,74.91
2022-11-05T14:51:47.084Z,74.90
2022-11-05T14:54:26.691Z,74.72
2022-11-05T14:57:00.562Z,74.77
2022-11-05T14:59:52.353Z,74.64
2022-11-05T15:02:29.065Z,74.63
2022-11-05T15:05:33.641Z,74.68
2022-11-05T15:08:32.029Z,74.83
2022-11-05T15:11:23.165Z,75.05
2022-11-05T15:14:05.648Z,74.93
2022-11-05T15:16:43.753Z,74.78
2022-11-05T15:19:30.061Z,74.85
2022-11-05T15:22:05.704Z,74.89
2022-11-05T15:24:38.334Z,74.72
2022-11-05T15:27:22.230Z,74.66
2022-11-05T15:29:54.724Z,74.77
2022-11-05T15:32:28.326Z,74.77
2022-11-05T15:35:00.218Z,74.88
2022-11-05T15:37:31.950Z,75.12
2022-11-05T15:40:04.009Z,74.93
2022-11-05T15:42:35.860Z,75.17
2022-11-05T15:45:21.870Z,74.88
2022-11-05T15:47:54.156Z,74.72
2022-11-05T15:50:29.068Z,74.56
2022-11-05T15:53:20.596Z,74.72
2022-11-05T15:56:00.968Z,74.91
2022-11-05T15:58:34.974Z,75.12
2022-11-05T16:01:08.133Z,75.38
2022-11-05T16:03:41.758Z,75.38
2022-11-05T16:06:14.439Z,75.30
2022-11-05T16:08:51.696Z,75.04
2022-11-05T16:11:28.796Z,74.92
2022-11-05T16:14:16.411Z,74.92
2022-11-05T16:16:49.835Z,75.19
2022-11-05T16:19:45.062Z,75.25
2022-11-05T16:22:19.003Z,75.32
2022-11-05T16:24:52.952Z,75.40
2022-11-05T16:27:25.261Z,75.40
2022-11-05T16:29:58.651Z,75.27
2022-11-05T16:32:32.350Z,75.21
2022-11-05T16:35:08.621Z,75.35
2022-11-05T16:37:49.145Z,75.29
2022-11-05T16:40:26.666Z,75.38
2022-11-05T16:43:17.723Z,75.23
2022-11-05T16:45:54.308Z,75.43
2022-11-05T16:48:27.441Z,75.47
2022-11-05T16:51:01.428Z,75.42
2022-11-05T16:53:33.817Z,75.07
2022-11-05T16:56:07.580Z,74.86
2022-11-05T16:58:39.644Z,74.92
2022-11-05T17:01:18.581Z,74.96
2022-11-05T17:03:55.637Z,74.97
2022-11-05T17:06:31.249Z,74.75
2022-11-05T17:09:04.096Z,74.95
2022-11-05T17:11:36.415Z,74.96
2022-11-05T17:14:09.270Z,74.90
2022-11-05T17:16:42.157Z,75.04
2022-11-05T17:19:17.031Z,74.93
2022-11-05T17:21:52.056Z,74.88
2022-11-05T17:24:24.296Z,75.10
2022-11-05T17:26:56.662Z,75.05
2022-11-05T17:29:28.673Z,75.19
2022-11-05T17:32:01.432Z,75.17
2022-11-05T17:34:33.271Z,75.23
2022-11-05T17:37:05.456Z,75.26
2022-11-05T17:39:37.355Z,75.25
2022-11-05T17:42:09.275Z,75.27
2022-11-05T17:44:41.013Z,75.29
2022-11-05T17:47:13.246Z,75.20
2022-11-05T17:49:45.116Z,75.23
2022-11-05T17:52:20.912Z,75.46
2022-11-05T17:54:52.957Z,75.62
2022-11-05T17:57:25.327Z,75.46
2022-11-05T17:59:57.207Z,75.64
2022-11-05T18:02:29.971Z,75.54
2022-11-05T18:05:04.292Z,75.44
2022-11-05T18:07:36.982Z,75.45
2022-11-05T18:10:10.949Z,75.47
2022-11-05T18:12:44.286Z,75.45
2022-11-05T18:15:17.427Z,75.55
2022-11-05T18:17:53.070Z,75.31
2022-11-05T18:20:24.969Z,75.44
2022-11-05T18:22:58.369Z,75.43
2022-11-05T18:25:30.136Z,75.43
2022-11-05T18:28:03.141Z,75.39
2022-11-05T18:30:34.948Z,75.43
2022-11-05T18:33:07.961Z,75.32
2022-11-05T18:35:44.913Z,75.34
2022-11-05T18:38:17.133Z,75.23
2022-11-05T18:40:51.553Z,75.18
2022-11-05T18:43:23.544Z,75.30
2022-11-05T18:45:58.654Z,75.26
2022-11-05T18:48:30.923Z,75.32
2022-11-05T18:51:07.535Z,75.45
2022-11-05T18:53:39.954Z,75.47
2022-11-05T18:56:13.178Z,75.47
2022-11-05T18:58:46.057Z,75.47
2022-11-05T19:01:19.629Z,75.56
2022-11-05T19:03:54.697Z,75.48
2022-11-05T19:06:26.991Z,75.50
2022-11-05T19:08:59.283Z,75.65
2022-11-05T19:11:31.514Z,75.64
2022-11-05T19:14:03.605Z,75.62
2022-11-05T19:16:36.796Z,75.77
2022-11-05T19:19:08.927Z,75.62
2022-11-05T19:21:40.720Z,75.72
2022-11-05T19:24:17.049Z,75.71
2022-11-05T19:26:51.615Z,75.74
2022-11-05T19:29:24.261Z,75.82
2022-11-05T19:31:56.171Z,75.93
2022-11-05T19:34:30.075Z,75.85
2022-11-05T19:37:07.285Z,75.96
2022-11-05T19:39:40.679Z,75.78
2022-11-05T19:42:12.693Z,75.95
2022-11-05T19:44:45.328Z,75.83
2022-11-05T19:47:17.717Z,75.82
2022-11-05T19:49:50.987Z,75.74
2022-11-05T19:52:22.822Z,75.84
2022-11-05T19:54:55.090Z,75.97
2022-11-05T19:57:29.756Z,75.98
2022-11-05T20:00:02.001Z,75.95
2022-11-05T20:02:49.011Z,75.91
2022-11-05T20:05:21.440Z,76.03
2022-11-05T20:07:56.681Z,76.09
2022-11-05T20:10:28.893Z,76.07
2022-11-05T20:13:02.370Z,76.11
2022-11-05T20:15:37.880Z,76.06
2022-11-05T20:18:10.033Z,75.97
2022-11-05T20:20:42.840Z,75.91
2022-11-05T20:23:20.540Z,76.05
2022-11-05T20:25:54.721Z,76.01
2022-11-05T20:28:26.771Z,76.11
2022-11-05T20:31:09.010Z,76.18
2022-11-05T20:33:41.700Z,76.27
2022-11-05T20:36:17.184Z,76.18
2022-11-05T20:38:55.388Z,76.03
2022-11-05T20:41:28.046Z,75.96
2022-11-05T20:44:00.533Z,76.19
2022-11-05T20:46:35.416Z,76.33
2022-11-05T20:49:07.281Z,76.24
2022-11-05T20:51:39.592Z,76.23
2022-11-05T20:54:11.973Z,76.31
2022-11-05T20:56:44.656Z,76.22
2022-11-05T20:59:16.602Z,76.18
2022-11-05T21:01:52.704Z,76.28
2022-11-05T21:04:24.776Z,76.24
2022-11-05T21:06:56.754Z,76.33
2022-11-05T21:09:28.480Z,76.28
2022-11-05T21:12:14.826Z,76.48
2022-11-05T21:14:47.790Z,76.33
2022-11-05T21:17:21.450Z,76.47
2022-11-05T21:19:54.646Z,76.20
2022-11-05T21:22:26.660Z,76.06
2022-11-05T21:24:58.535Z,76.14
2022-11-05T21:27:30.510Z,76.20
2022-11-05T21:30:02.416Z,76.18
2022-11-05T21:32:35.062Z,76.40
2022-11-05T21:35:07.949Z,76.38
2022-11-05T21:37:40.165Z,76.43
2022-11-05T21:40:14.418Z,76.49
2022-11-05T21:42:46.462Z,76.47
2022-11-05T21:45:18.421Z,76.21
2022-11-05T21:47:52.779Z,76.09
2022-11-05T21:50:45.434Z,76.13
2022-11-05T21:53:36.440Z,76.06
2022-11-05T21:56:34.536Z,76.11
2022-11-05T21:59:24.658Z,76.38
2022-11-05T22:02:02.880Z,76.50
2022-11-05T22:04:37.165Z,76.60
2022-11-05T22:07:10.470Z,76.74
2022-11-05T22:09:42.558Z,76.70
2022-11-05T22:12:15.097Z,76.52
2022-11-05T22:14:47.312Z,76.46
2022-11-05T22:17:21.261Z,76.19
2022-11-05T22:19:56.260Z,76.13
2022-11-05T22:22:28.665Z,76.19
2022-11-05T22:25:02.172Z,76.11
2022-11-05T22:27:34.073Z,76.25
2022-11-05T22:30:09.427Z,76.39
2022-11-05T22:32:41.501Z,76.30
2022-11-05T22:35:13.730Z,76.35
2022-11-05T22:37:46.487Z,76.35
2022-11-05T22:40:23.839Z,76.25
2022-11-05T22:42:56.444Z,76.13
2022-11-05T22:45:37.304Z,76.24
2022-11-05T22:48:09.960Z,76.28
2022-11-05T22:50:42.538Z,76.27
2022-11-05T22:53:14.352Z,76.15
2022-11-05T22:55:51.037Z,76.12
2022-11-05T22:58:22.835Z,76.12
2022-11-05T23:00:55.363Z,76.16
2022-11-05T23:03:31.500Z,76.20
2022-11-05T23:06:30.922Z,76.20
2022-11-05T23:09:21.702Z,76.32
2022-11-05T23:11:57.523Z,76.29
2022-11-05T23:14:33.437Z,76.22
2022-11-05T23:17:23.236Z,76.31
2022-11-05T23:20:12.818Z,76.48
2022-11-05T23:23:04.855Z,76.33
2022-11-05T23:25:37.202Z,76.13
2022-11-05T23:28:11.344Z,76.15
2022-11-05T23:31:00.247Z,76.21
2022-11-05T23:33:36.076Z,76.26
2022-11-05T23:36:30.696Z,76.10
2022-11-05T23:39:06.166Z,76.19
2022-11-05T23:41:56.904Z,76.17
2022-11-05T23:44:49.037Z,76.06
2022-11-05T23:47:46.779Z,76.07
2022-11-05T23:50:21.335Z,76.40
2022-11-05T23:52:58.549Z,76.33
2022-11-05T23:55:31.300Z,76.40
2022-11-05T23:58:03.391Z,76.39
